Time;durP1;ratioP1;P1;durP2;ratioP2;P2;SDS_P1;SDS_P2;PMS_P1;PMS_P2;Temp;Humidity;BMP_temperature;BMP_pressure;BME280_temperature;BME280_humidity;BME280_pressure;Samples;Min_cycle;Max_cycle;Signal;HPM_P1;HPM_P2
2023/04/23 00:00:20;;;;;;;32.10;21.85;;;;;;;;;;5083054;27;20047;-81
2023/04/23 00:02:48;;;;;;;28.25;20.48;;;;;;;;;;5086108;27;20051;-81
2023/04/23 00:05:18;;;;;;;31.58;20.48;;;;;;;;;;5088464;27;20052;-81
2023/04/23 00:07:44;;;;;;;30.25;20.95;;;;;;;;;;5082658;27;20043;-78
2023/04/23 00:10:11;;;;;;;32.25;21.80;;;;;;;;;;5085274;27;20031;-78
2023/04/23 00:12:37;;;;;;;30.65;21.42;;;;;;;;;;5082353;27;20054;-79
2023/04/23 00:15:05;;;;;;;32.20;21.65;;;;;;;;;;5083688;27;20059;-81
2023/04/23 00:17:31;;;;;;;34.13;22.52;;;;;;;;;;5084295;27;20051;-81
2023/04/23 00:19:57;;;;;;;34.75;23.17;;;;;;;;;;5085765;27;20128;-80
2023/04/23 00:22:23;;;;;;;36.70;23.75;;;;;;;;;;5083001;27;20058;-80
2023/04/23 00:24:50;;;;;;;36.67;22.88;;;;;;;;;;5082435;27;20050;-80
2023/04/23 00:27:17;;;;;;;36.10;24.60;;;;;;;;;;5078179;27;20043;-80
2023/04/23 00:29:45;;;;;;;40.55;23.92;;;;;;;;;;5081000;27;20043;-80
2023/04/23 00:32:11;;;;;;;36.80;23.75;;;;;;;;;;5085867;27;20042;-80
2023/04/23 00:34:37;;;;;;;38.17;24.27;;;;;;;;;;5081835;27;20039;-81
2023/04/23 00:37:05;;;;;;;41.97;24.77;;;;;;;;;;5082111;27;20095;-80
2023/04/23 00:39:31;;;;;;;39.88;25.65;;;;;;;;;;5087731;27;20100;-80
2023/04/23 00:42:00;;;;;;;43.20;25.65;;;;;;;;;;5087699;27;20052;-80
2023/04/23 00:44:27;;;;;;;38.40;25.52;;;;;;;;;;5086553;27;20039;-80
2023/04/23 00:46:53;;;;;;;36.35;25.65;;;;;;;;;;5090641;27;20043;-80
2023/04/23 00:49:20;;;;;;;35.95;25.17;;;;;;;;;;5087962;27;20039;-80
2023/04/23 00:51:46;;;;;;;38.70;25.73;;;;;;;;;;5072506;27;20126;-80
2023/04/23 00:54:13;;;;;;;40.03;27.17;;;;;;;;;;5087283;27;20042;-81
2023/04/23 00:56:39;;;;;;;42.72;27.20;;;;;;;;;;5091604;27;20047;-80
2023/04/23 00:59:05;;;;;;;45.90;28.38;;;;;;;;;;5087254;27;20139;-81
2023/04/23 01:01:32;;;;;;;40.75;27.00;;;;;;;;;;5090959;27;20399;-81
2023/04/23 01:03:58;;;;;;;42.45;27.92;;;;;;;;;;5089364;27;20055;-80
2023/04/23 01:06:24;;;;;;;40.13;27.17;;;;;;;;;;5092493;27;20050;-80
2023/04/23 01:08:50;;;;;;;44.42;28.73;;;;;;;;;;5087052;27;20051;-81
2023/04/23 01:11:16;;;;;;;44.67;27.63;;;;;;;;;;5089308;27;20069;-80
2023/04/23 01:13:43;;;;;;;44.28;27.58;;;;;;;;;;5089098;27;20058;-80
2023/04/23 01:16:09;;;;;;;44.63;29.08;;;;;;;;;;5090179;27;20123;-80
2023/04/23 01:18:35;;;;;;;46.13;28.33;;;;;;;;;;5076400;28;20541;-80
2023/04/23 01:21:02;;;;;;;44.88;29.45;;;;;;;;;;5087619;27;20402;-80
2023/04/23 01:23:29;;;;;;;51.05;30.02;;;;;;;;;;5090453;27;20208;-81
2023/04/23 01:25:55;;;;;;;52.85;29.10;;;;;;;;;;5088629;27;20035;-81
2023/04/23 01:28:21;;;;;;;46.40;30.60;;;;;;;;;;5089524;27;20067;-80
2023/04/23 01:30:47;;;;;;;49.75;29.10;;;;;;;;;;5089755;27;20118;-80
2023/04/23 01:33:14;;;;;;;50.58;31.58;;;;;;;;;;5086547;27;20174;-80
2023/04/23 01:35:40;;;;;;;50.42;31.25;;;;;;;;;;5086789;27;20134;-80
2023/04/23 01:38:08;;;;;;;71.63;32.78;;;;;;;;;;5086873;27;20504;-80
2023/04/23 01:40:34;;;;;;;100.53;34.53;;;;;;;;;;5089775;27;20430;-80
2023/04/23 01:43:00;;;;;;;128.50;35.58;;;;;;;;;;5095905;27;20515;-80
2023/04/23 01:45:27;;;;;;;208.35;35.78;;;;;;;;;;5094483;27;21878;-81
2023/04/23 01:47:53;;;;;;;284.88;38.30;;;;;;;;;;5094541;27;20040;-80
2023/04/23 01:50:22;;;;;;;231.18;36.67;;;;;;;;;;5093491;27;20768;-80
2023/04/23 01:52:48;;;;;;;288.80;38.92;;;;;;;;;;5090927;27;20251;-80
2023/04/23 01:55:14;;;;;;;177.98;35.10;;;;;;;;;;5093532;27;20043;-80
2023/04/23 01:57:40;;;;;;;245.18;37.08;;;;;;;;;;5092211;27;20055;-80
2023/04/23 02:00:08;;;;;;;252.48;38.28;;;;;;;;;;5092270;27;20039;-80
2023/04/23 02:02:37;;;;;;;429.48;49.83;;;;;;;;;;5068077;27;20063;-80
2023/04/23 02:05:04;;;;;;;348.95;43.55;;;;;;;;;;5095947;27;20078;-80
2023/04/23 02:07:35;;;;;;;291.90;45.17;;;;;;;;;;5091056;27;20407;-80
2023/04/23 02:10:01;;;;;;;264.25;47.42;;;;;;;;;;5089871;27;20047;-80
2023/04/23 02:12:28;;;;;;;159.20;43.78;;;;;;;;;;5093639;27;20472;-80
2023/04/23 02:14:54;;;;;;;251.95;45.58;;;;;;;;;;5094350;27;20495;-80
2023/04/23 02:17:21;;;;;;;202.48;43.72;;;;;;;;;;5096646;27;20050;-80
2023/04/23 02:19:47;;;;;;;209.60;46.22;;;;;;;;;;5095561;27;20039;-79
2023/04/23 02:22:14;;;;;;;160.25;41.80;;;;;;;;;;5090603;27;20050;-79
2023/04/23 02:24:40;;;;;;;168.63;46.20;;;;;;;;;;5104344;27;20050;-79
2023/04/23 02:27:07;;;;;;;205.27;42.08;;;;;;;;;;5086540;27;20063;-79
2023/04/23 02:29:33;;;;;;;269.23;45.97;;;;;;;;;;5074221;27;20043;-78
2023/04/23 02:31:59;;;;;;;138.80;43.80;;;;;;;;;;5086226;27;20093;-78
2023/04/23 02:34:25;;;;;;;109.90;41.60;;;;;;;;;;5093114;27;20048;-78
2023/04/23 02:36:51;;;;;;;125.38;47.25;;;;;;;;;;5090881;27;20144;-79
2023/04/23 02:39:18;;;;;;;96.53;43.20;;;;;;;;;;5095249;27;20063;-79
2023/04/23 02:41:44;;;;;;;86.40;42.63;;;;;;;;;;5095459;27;22057;-79
2023/04/23 02:44:10;;;;;;;91.97;43.30;;;;;;;;;;5093661;27;20038;-79
2023/04/23 02:46:36;;;;;;;98.00;44.22;;;;;;;;;;5092028;27;20043;-79
2023/04/23 02:49:03;;;;;;;85.88;43.97;;;;;;;;;;5094257;27;20054;-79
2023/04/23 02:51:30;;;;;;;86.53;42.72;;;;;;;;;;5087318;27;20054;-78
2023/04/23 02:53:56;;;;;;;84.65;41.35;;;;;;;;;;5088111;27;20071;-79
2023/04/23 02:56:23;;;;;;;85.22;41.75;;;;;;;;;;5092472;27;22992;-78
2023/04/23 02:58:49;;;;;;;92.07;43.22;;;;;;;;;;5092073;27;20100;-79
2023/04/23 03:01:15;;;;;;;86.88;42.63;;;;;;;;;;5072726;27;20134;-79
2023/04/23 03:03:41;;;;;;;91.47;44.05;;;;;;;;;;5076901;27;20054;-79
2023/04/23 03:06:07;;;;;;;86.93;42.72;;;;;;;;;;5090286;27;20043;-79
2023/04/23 03:08:34;;;;;;;101.50;43.65;;;;;;;;;;5088773;27;20051;-81
2023/04/23 03:11:00;;;;;;;110.88;43.85;;;;;;;;;;5089353;27;20437;-79
2023/04/23 03:13:26;;;;;;;139.75;45.97;;;;;;;;;;5090009;27;20084;-79
2023/04/23 03:15:53;;;;;;;211.25;45.90;;;;;;;;;;5088156;27;20062;-79
2023/04/23 03:18:19;;;;;;;254.00;50.53;;;;;;;;;;5092149;27;20132;-79
2023/04/23 03:20:45;;;;;;;418.08;51.45;;;;;;;;;;5073109;27;20166;-79
2023/04/23 03:23:12;;;;;;;568.53;60.63;;;;;;;;;;5089121;27;20243;-81
2023/04/23 03:25:38;;;;;;;297.15;49.85;;;;;;;;;;5069325;27;20039;-78
2023/04/23 03:28:04;;;;;;;312.42;47.75;;;;;;;;;;5088897;27;20040;-81
2023/04/23 03:30:30;;;;;;;189.57;48.05;;;;;;;;;;5089858;27;20039;-80
2023/04/23 03:32:57;;;;;;;97.88;43.13;;;;;;;;;;5088173;27;20043;-81
2023/04/23 03:35:23;;;;;;;144.13;47.17;;;;;;;;;;5092152;27;20070;-80
2023/04/23 03:37:49;;;;;;;89.35;42.97;;;;;;;;;;5088400;27;20377;-81
2023/04/23 03:40:15;;;;;;;92.15;42.60;;;;;;;;;;5090835;27;21086;-81
2023/04/23 03:42:41;;;;;;;88.53;41.13;;;;;;;;;;5097961;27;21403;-81
2023/04/23 03:45:08;;;;;;;90.40;41.50;;;;;;;;;;5096477;27;20051;-81
2023/04/23 03:47:35;;;;;;;104.22;43.53;;;;;;;;;;5078454;27;20063;-80
2023/04/23 03:50:01;;;;;;;137.75;43.20;;;;;;;;;;5114964;27;20126;-81
2023/04/23 03:52:29;;;;;;;97.55;43.55;;;;;;;;;;5101355;27;20048;-81
2023/04/23 03:54:55;;;;;;;106.90;39.60;;;;;;;;;;5099737;27;20051;-81
2023/04/23 03:57:21;;;;;;;213.10;44.17;;;;;;;;;;5080856;27;20079;-80
2023/04/23 03:59:47;;;;;;;159.60;43.38;;;;;;;;;;5100828;27;20845;-80
2023/04/23 04:02:14;;;;;;;160.82;44.33;;;;;;;;;;5092766;27;20039;-80
2023/04/23 04:04:41;;;;;;;93.90;41.55;;;;;;;;;;5090553;27;20602;-80
2023/04/23 04:07:10;;;;;;;108.10;45.15;;;;;;;;;;5086929;27;20114;-80
2023/04/23 04:09:37;;;;;;;83.00;41.78;;;;;;;;;;5088534;27;20036;-80
2023/04/23 04:12:03;;;;;;;94.38;41.00;;;;;;;;;;5088584;27;20040;-80
2023/04/23 04:14:30;;;;;;;94.57;42.95;;;;;;;;;;5087653;27;20040;-81
2023/04/23 04:16:56;;;;;;;94.45;42.45;;;;;;;;;;5061866;27;20039;-78
2023/04/23 04:19:22;;;;;;;90.07;42.58;;;;;;;;;;5084385;27;20116;-78
2023/04/23 04:21:50;;;;;;;98.75;43.35;;;;;;;;;;5086675;27;20051;-78
2023/04/23 04:24:16;;;;;;;95.53;46.38;;;;;;;;;;5088730;27;22004;-78
2023/04/23 04:26:43;;;;;;;112.93;49.65;;;;;;;;;;5085788;27;20031;-78
2023/04/23 04:29:09;;;;;;;91.22;45.15;;;;;;;;;;5083693;27;20043;-79
2023/04/23 04:31:36;;;;;;;103.57;48.10;;;;;;;;;;5085909;27;20044;-78
2023/04/23 04:34:02;;;;;;;111.28;48.83;;;;;;;;;;5083884;27;20042;-78
2023/04/23 04:36:28;;;;;;;110.25;49.50;;;;;;;;;;5069035;27;20047;-78
2023/04/23 04:38:57;;;;;;;118.13;50.20;;;;;;;;;;5087107;27;20047;-79
2023/04/23 04:41:24;;;;;;;111.40;52.55;;;;;;;;;;5088992;27;20048;-79
2023/04/23 04:43:50;;;;;;;121.35;52.08;;;;;;;;;;5087572;27;20515;-79
2023/04/23 04:46:20;;;;;;;115.63;55.15;;;;;;;;;;5088930;27;20048;-79
2023/04/23 04:48:46;;;;;;;124.22;53.97;;;;;;;;;;5086429;27;21887;-79
2023/04/23 04:51:12;;;;;;;128.38;57.50;;;;;;;;;;5083481;27;20071;-78
2023/04/23 04:53:38;;;;;;;122.93;55.67;;;;;;;;;;5078622;27;20040;-79
2023/04/23 04:56:05;;;;;;;136.80;56.97;;;;;;;;;;5083648;27;20118;-79
2023/04/23 04:58:31;;;;;;;125.78;58.33;;;;;;;;;;5084172;27;20047;-78
2023/04/23 05:00:58;;;;;;;142.27;62.35;;;;;;;;;;5088234;27;20089;-79
2023/04/23 05:03:24;;;;;;;132.13;59.33;;;;;;;;;;5086989;27;20125;-79
2023/04/23 05:05:51;;;;;;;135.63;60.70;;;;;;;;;;5089804;27;20103;-78
2023/04/23 05:08:20;;;;;;;131.20;60.95;;;;;;;;;;5086028;27;20042;-79
2023/04/23 05:10:46;;;;;;;140.25;60.30;;;;;;;;;;5085301;27;20192;-78
2023/04/23 05:13:12;;;;;;;143.93;63.38;;;;;;;;;;5085928;27;20039;-79
2023/04/23 05:15:38;;;;;;;139.73;63.90;;;;;;;;;;5088206;27;21616;-81
2023/04/23 05:18:05;;;;;;;145.57;63.30;;;;;;;;;;5078070;27;20092;-80
2023/04/23 05:20:31;;;;;;;151.40;68.80;;;;;;;;;;5085248;27;20044;-80
2023/04/23 05:23:01;;;;;;;160.30;68.68;;;;;;;;;;5084229;27;20069;-82
2023/04/23 05:25:27;;;;;;;168.02;72.55;;;;;;;;;;5088383;27;20047;-82
2023/04/23 05:27:53;;;;;;;163.38;70.35;;;;;;;;;;5083032;27;20042;-81
2023/04/23 05:30:19;;;;;;;176.90;72.03;;;;;;;;;;5084620;27;20047;-81
2023/04/23 05:32:45;;;;;;;169.82;72.43;;;;;;;;;;5087605;27;20805;-81
2023/04/23 05:35:11;;;;;;;168.52;70.72;;;;;;;;;;5088022;27;20043;-81
2023/04/23 05:37:37;;;;;;;165.85;67.70;;;;;;;;;;5085484;27;20157;-81
2023/04/23 05:40:05;;;;;;;175.35;70.47;;;;;;;;;;5081501;27;20047;-80
2023/04/23 05:42:32;;;;;;;157.85;67.18;;;;;;;;;;5084194;27;20525;-81
2023/04/23 05:44:58;;;;;;;162.77;69.40;;;;;;;;;;5084150;28;20559;-80
2023/04/23 05:47:24;;;;;;;186.85;77.07;;;;;;;;;;5087304;27;20051;-81
2023/04/23 05:49:50;;;;;;;171.00;68.78;;;;;;;;;;5084660;28;20138;-80
2023/04/23 05:52:16;;;;;;;169.60;70.20;;;;;;;;;;5086641;28;20052;-81
2023/04/23 05:54:42;;;;;;;189.18;76.82;;;;;;;;;;5090630;28;20066;-82
2023/04/23 05:57:09;;;;;;;181.65;74.03;;;;;;;;;;5089912;28;20078;-81
2023/04/23 05:59:35;;;;;;;181.85;75.03;;;;;;;;;;5088623;28;20051;-80
2023/04/23 06:02:01;;;;;;;166.57;70.75;;;;;;;;;;5095126;27;20059;-79
2023/04/23 06:04:27;;;;;;;192.00;75.80;;;;;;;;;;5091603;27;20076;-79
2023/04/23 06:06:59;;;;;;;180.68;74.88;;;;;;;;;;5090037;27;20040;-79
2023/04/23 06:09:25;;;;;;;181.60;75.20;;;;;;;;;;5089797;28;20090;-79
2023/04/23 06:11:52;;;;;;;184.68;78.15;;;;;;;;;;5078524;28;20089;-79
2023/04/23 06:14:18;;;;;;;185.52;75.57;;;;;;;;;;5060971;27;20063;-79
2023/04/23 06:16:44;;;;;;;186.05;78.57;;;;;;;;;;5066853;28;20567;-79
2023/04/23 06:19:10;;;;;;;183.02;78.28;;;;;;;;;;5086462;27;20046;-83
2023/04/23 06:21:37;;;;;;;195.68;77.80;;;;;;;;;;5067350;28;20054;-83
2023/04/23 06:24:04;;;;;;;181.40;76.18;;;;;;;;;;5091249;28;20051;-82
2023/04/23 06:26:30;;;;;;;184.80;79.60;;;;;;;;;;5088807;27;20048;-80
2023/04/23 06:28:56;;;;;;;193.90;79.40;;;;;;;;;;5093304;27;20042;-80
2023/04/23 06:31:22;;;;;;;181.60;79.07;;;;;;;;;;5091000;27;20043;-82
2023/04/23 06:33:48;;;;;;;176.32;75.28;;;;;;;;;;5091950;27;20096;-82
2023/04/23 06:36:14;;;;;;;177.32;79.15;;;;;;;;;;5094550;27;20491;-83
2023/04/23 06:38:40;;;;;;;167.85;81.22;;;;;;;;;;5092200;27;20043;-83
2023/04/23 06:41:06;;;;;;;174.48;76.50;;;;;;;;;;5086967;27;20047;-80
2023/04/23 06:43:33;;;;;;;170.32;76.45;;;;;;;;;;5090006;27;20145;-80
2023/04/23 06:45:59;;;;;;;160.52;74.38;;;;;;;;;;5090536;27;20039;-80
2023/04/23 06:48:25;;;;;;;153.32;73.72;;;;;;;;;;5089748;27;20038;-79
2023/04/23 06:50:52;;;;;;;152.05;72.68;;;;;;;;;;5089015;27;20048;-81
2023/04/23 06:53:18;;;;;;;132.73;70.18;;;;;;;;;;5089132;27;20048;-80
2023/04/23 06:55:44;;;;;;;134.90;70.35;;;;;;;;;;5081962;27;20101;-80
2023/04/23 06:58:10;;;;;;;121.88;64.03;;;;;;;;;;5086042;27;20530;-80
2023/04/23 07:00:36;;;;;;;126.55;66.90;;;;;;;;;;5073400;27;20103;-80
2023/04/23 07:03:03;;;;;;;122.60;64.25;;;;;;;;;;5065311;28;20116;-78
2023/04/23 07:05:29;;;;;;;116.93;63.45;;;;;;;;;;5091563;27;20063;-79
2023/04/23 07:07:55;;;;;;;113.03;61.83;;;;;;;;;;5090363;27;20036;-79
2023/04/23 07:10:21;;;;;;;114.30;62.13;;;;;;;;;;5090062;27;20515;-78
2023/04/23 07:12:47;;;;;;;106.55;62.53;;;;;;;;;;5088688;27;20431;-78
2023/04/23 07:15:13;;;;;;;108.43;62.42;;;;;;;;;;5090696;27;20356;-79
2023/04/23 07:17:40;;;;;;;107.78;60.13;;;;;;;;;;5090390;27;20032;-79
2023/04/23 07:20:07;;;;;;;101.63;61.20;;;;;;;;;;5092648;27;22398;-79
2023/04/23 07:22:33;;;;;;;102.88;60.28;;;;;;;;;;5090866;27;20051;-80
2023/04/23 07:25:00;;;;;;;99.53;58.90;;;;;;;;;;5091650;27;20042;-79
2023/04/23 07:27:26;;;;;;;91.72;54.97;;;;;;;;;;5091021;27;20096;-82
2023/04/23 07:29:52;;;;;;;97.55;58.10;;;;;;;;;;5090553;27;20085;-83
2023/04/23 07:32:18;;;;;;;96.95;58.58;;;;;;;;;;5072443;27;20048;-82
2023/04/23 07:34:44;;;;;;;83.55;52.60;;;;;;;;;;5086452;27;21406;-82
2023/04/23 07:37:10;;;;;;;87.15;52.85;;;;;;;;;;5079936;27;20051;-79
2023/04/23 07:39:36;;;;;;;84.55;53.85;;;;;;;;;;5090362;27;20039;-80
2023/04/23 07:42:03;;;;;;;77.45;49.03;;;;;;;;;;5092861;27;20084;-80
2023/04/23 07:44:29;;;;;;;78.90;50.22;;;;;;;;;;5091725;27;20122;-80
2023/04/23 07:46:56;;;;;;;72.00;49.47;;;;;;;;;;5089223;27;20588;-80
2023/04/23 07:49:22;;;;;;;71.93;46.20;;;;;;;;;;5086562;27;20044;-73
2023/04/23 07:51:48;;;;;;;73.15;46.33;;;;;;;;;;5083295;27;20055;-73
2023/04/23 07:54:14;;;;;;;67.13;44.17;;;;;;;;;;5082643;27;20135;-73
2023/04/23 07:56:40;;;;;;;69.97;45.72;;;;;;;;;;5091017;27;20047;-73
2023/04/23 07:59:08;;;;;;;78.55;50.42;;;;;;;;;;5089461;27;20130;-73
2023/04/23 08:01:34;;;;;;;70.47;43.58;;;;;;;;;;5090869;27;20172;-73
2023/04/23 08:04:01;;;;;;;69.57;47.92;;;;;;;;;;5059459;27;20758;-73
2023/04/23 08:06:30;;;;;;;69.28;47.95;;;;;;;;;;5088736;27;20071;-73
2023/04/23 08:08:56;;;;;;;66.60;45.85;;;;;;;;;;5087834;27;20046;-73
2023/04/23 08:11:22;;;;;;;67.15;45.55;;;;;;;;;;5088722;27;20528;-73
2023/04/23 08:13:48;;;;;;;62.55;40.85;;;;;;;;;;5071520;27;20044;-73
2023/04/23 08:16:14;;;;;;;61.65;41.25;;;;;;;;;;5087663;27;20082;-75
2023/04/23 08:18:40;;;;;;;59.50;42.35;;;;;;;;;;5088879;27;20389;-74
2023/04/23 08:21:07;;;;;;;55.65;39.20;;;;;;;;;;5086702;27;20135;-73
2023/04/23 08:23:33;;;;;;;59.80;42.20;;;;;;;;;;5092044;27;20055;-73
2023/04/23 08:25:59;;;;;;;61.88;43.38;;;;;;;;;;5089533;27;20035;-73
2023/04/23 08:28:26;;;;;;;56.15;40.42;;;;;;;;;;5089085;27;20062;-73
2023/04/23 08:30:53;;;;;;;56.20;40.05;;;;;;;;;;5087529;27;20039;-73
2023/04/23 08:33:19;;;;;;;54.90;38.15;;;;;;;;;;5076062;27;20119;-73
2023/04/23 08:35:46;;;;;;;54.83;39.40;;;;;;;;;;5088065;27;20062;-73
2023/04/23 08:38:12;;;;;;;58.50;41.70;;;;;;;;;;5087558;27;20036;-73
2023/04/23 08:40:40;;;;;;;57.08;40.33;;;;;;;;;;5088522;27;20503;-73
2023/04/23 08:43:11;;;;;;;55.92;41.92;;;;;;;;;;5090987;27;20140;-73
2023/04/23 08:45:40;;;;;;;53.03;38.45;;;;;;;;;;5090434;27;20412;-73
2023/04/23 08:48:07;;;;;;;57.38;35.95;;;;;;;;;;5091909;27;20100;-73
2023/04/23 08:50:33;;;;;;;50.88;35.03;;;;;;;;;;5087451;27;20051;-72
2023/04/23 08:52:59;;;;;;;49.25;36.08;;;;;;;;;;5076030;28;20043;-72
2023/04/23 08:55:25;;;;;;;49.45;35.42;;;;;;;;;;5084201;27;20047;-72
2023/04/23 08:57:52;;;;;;;47.15;34.67;;;;;;;;;;5081991;27;20452;-72
2023/04/23 09:00:18;;;;;;;49.35;34.75;;;;;;;;;;5084759;27;20076;-72
2023/04/23 09:02:46;;;;;;;44.95;31.73;;;;;;;;;;5086670;27;20135;-72
2023/04/23 09:05:12;;;;;;;45.53;32.42;;;;;;;;;;5086286;27;20071;-72
2023/04/23 09:07:38;;;;;;;44.08;31.58;;;;;;;;;;5064240;27;20132;-72
2023/04/23 09:10:08;;;;;;;44.28;32.97;;;;;;;;;;5088717;27;20096;-72
2023/04/23 09:12:35;;;;;;;35.17;26.77;;;;;;;;;;5085282;27;20053;-72
2023/04/23 09:15:09;;;;;;;39.50;29.60;;;;;;;;;;5086164;27;20168;-72
2023/04/23 09:17:35;;;;;;;36.80;26.33;;;;;;;;;;5086443;27;20135;-72
2023/04/23 09:20:02;;;;;;;35.50;25.55;;;;;;;;;;5085355;27;20086;-72
2023/04/23 09:22:47;;;;;;;37.28;26.63;;;;;;;;;;5086185;27;20039;-72
2023/04/23 09:25:16;;;;;;;40.05;26.05;;;;;;;;;;5084472;27;20048;-72
2023/04/23 09:27:42;;;;;;;34.60;25.02;;;;;;;;;;5089636;27;20064;-72
2023/04/23 09:30:10;;;;;;;32.15;24.67;;;;;;;;;;5082235;28;20047;-74
2023/04/23 09:32:38;;;;;;;35.40;24.00;;;;;;;;;;5075224;27;20139;-72
2023/04/23 09:35:05;;;;;;;34.38;26.88;;;;;;;;;;5089924;27;20070;-72
2023/04/23 09:37:32;;;;;;;30.45;23.80;;;;;;;;;;5086260;28;20047;-72
2023/04/23 09:39:59;;;;;;;30.85;21.58;;;;;;;;;;5087420;27;20096;-72
2023/04/23 09:42:26;;;;;;;28.65;21.98;;;;;;;;;;5087750;27;20058;-72
2023/04/23 09:45:06;;;;;;;34.92;22.15;;;;;;;;;;5084924;27;20185;-73
2023/04/23 09:47:33;;;;;;;28.00;18.02;;;;;;;;;;5083259;27;20082;-74
2023/04/23 09:50:00;;;;;;;28.02;18.08;;;;;;;;;;5085255;27;20075;-73
2023/04/23 09:52:27;;;;;;;25.80;17.92;;;;;;;;;;5091443;27;20047;-73
2023/04/23 09:54:56;;;;;;;25.13;18.27;;;;;;;;;;5086955;28;20763;-73
2023/04/23 09:57:24;;;;;;;26.73;19.00;;;;;;;;;;5065478;28;20930;-73
2023/04/23 09:59:50;;;;;;;21.90;15.77;;;;;;;;;;5086197;27;20079;-73
2023/04/23 10:02:17;;;;;;;23.08;16.42;;;;;;;;;;5090921;27;20036;-72
2023/04/23 10:04:43;;;;;;;22.15;15.90;;;;;;;;;;5085687;27;20059;-72
2023/04/23 10:07:12;;;;;;;19.13;15.10;;;;;;;;;;5085824;27;20043;-71
2023/04/23 10:09:41;;;;;;;20.38;14.20;;;;;;;;;;5091537;27;20035;-72
2023/04/23 10:12:07;;;;;;;14.50;10.82;;;;;;;;;;5090960;27;20820;-73
2023/04/23 10:14:33;;;;;;;20.40;12.13;;;;;;;;;;5087275;27;20044;-73
2023/04/23 10:17:02;;;;;;;14.50;10.80;;;;;;;;;;5084123;27;20075;-72
2023/04/23 10:19:29;;;;;;;16.95;8.73;;;;;;;;;;5089095;27;20079;-73
2023/04/23 10:22:03;;;;;;;14.38;10.52;;;;;;;;;;5086231;27;20541;-72
2023/04/23 10:24:31;;;;;;;18.45;12.25;;;;;;;;;;5089092;27;21858;-72
2023/04/23 10:26:59;;;;;;;22.52;11.15;;;;;;;;;;5091108;27;20130;-73
2023/04/23 10:29:30;;;;;;;14.38;9.77;;;;;;;;;;5090349;27;20098;-73
2023/04/23 10:31:57;;;;;;;15.80;10.00;;;;;;;;;;5105922;27;20043;-73
2023/04/23 10:34:24;;;;;;;14.52;10.45;;;;;;;;;;5091282;27;20150;-74
2023/04/23 10:36:50;;;;;;;13.57;9.10;;;;;;;;;;5087552;27;20047;-73
2023/04/23 10:39:17;;;;;;;13.93;9.75;;;;;;;;;;5065466;27;20544;-72
2023/04/23 10:41:43;;;;;;;12.15;8.65;;;;;;;;;;5091715;27;20079;-73
2023/04/23 10:44:15;;;;;;;14.45;8.80;;;;;;;;;;5087952;27;20040;-73
2023/04/23 10:46:49;;;;;;;11.88;8.10;;;;;;;;;;5090025;27;20036;-72
2023/04/23 10:49:15;;;;;;;14.60;8.60;;;;;;;;;;5090161;27;20051;-73
2023/04/23 10:51:46;;;;;;;13.05;9.02;;;;;;;;;;5091715;27;20056;-73
2023/04/23 10:54:16;;;;;;;11.13;7.47;;;;;;;;;;5091097;27;20047;-73
2023/04/23 10:56:43;;;;;;;17.08;9.48;;;;;;;;;;5088930;27;20129;-72
2023/04/23 10:59:21;;;;;;;13.38;9.13;;;;;;;;;;5088193;27;20048;-73
2023/04/23 11:01:49;;;;;;;12.50;7.30;;;;;;;;;;5081592;27;20544;-73
2023/04/23 11:04:23;;;;;;;13.38;7.93;;;;;;;;;;5082372;27;20055;-73
2023/04/23 11:06:49;;;;;;;12.52;7.82;;;;;;;;;;5083964;27;22005;-73
2023/04/23 11:09:28;;;;;;;14.18;8.02;;;;;;;;;;5101299;27;20050;-73
2023/04/23 11:11:55;;;;;;;10.07;6.47;;;;;;;;;;5083824;27;22066;-73
2023/04/23 11:14:33;;;;;;;9.80;5.93;;;;;;;;;;5087884;27;20469;-73
2023/04/23 11:16:59;;;;;;;12.10;5.63;;;;;;;;;;5085339;27;20176;-73
2023/04/23 11:19:25;;;;;;;15.57;6.32;;;;;;;;;;5072920;27;20044;-73
2023/04/23 11:21:54;;;;;;;9.77;5.38;;;;;;;;;;5077683;27;20538;-73
2023/04/23 11:24:22;;;;;;;9.98;5.10;;;;;;;;;;5087414;27;20162;-73
2023/04/23 11:26:52;;;;;;;9.88;5.07;;;;;;;;;;5086119;27;22086;-74
2023/04/23 11:29:20;;;;;;;13.02;4.95;;;;;;;;;;5084976;27;20105;-73
2023/04/23 11:31:47;;;;;;;9.73;5.07;;;;;;;;;;5089316;27;20048;-73
2023/04/23 11:34:14;;;;;;;7.63;4.47;;;;;;;;;;5089740;27;20031;-74
2023/04/23 11:36:40;;;;;;;13.05;4.03;;;;;;;;;;5086698;27;20494;-73
2023/04/23 11:39:08;;;;;;;14.30;4.75;;;;;;;;;;5084924;27;20078;-72
2023/04/23 11:41:34;;;;;;;11.77;4.43;;;;;;;;;;5086408;27;20048;-72
2023/04/23 11:44:01;;;;;;;8.05;3.97;;;;;;;;;;5069454;27;20057;-71
2023/04/23 11:46:27;;;;;;;7.57;4.05;;;;;;;;;;5081450;27;20062;-72
2023/04/23 11:48:53;;;;;;;8.25;3.75;;;;;;;;;;5084577;27;20206;-72
2023/04/23 11:51:24;;;;;;;10.40;4.53;;;;;;;;;;5085839;27;20054;-72
2023/04/23 11:53:50;;;;;;;11.30;5.40;;;;;;;;;;5087401;27;20071;-73
2023/04/23 11:56:17;;;;;;;10.05;4.10;;;;;;;;;;5085827;27;20089;-73
2023/04/23 11:58:43;;;;;;;10.80;4.68;;;;;;;;;;5087018;27;20044;-73
2023/04/23 12:01:12;;;;;;;12.13;4.28;;;;;;;;;;5084755;27;20146;-72
2023/04/23 12:03:38;;;;;;;8.52;3.80;;;;;;;;;;5090387;27;20056;-72
2023/04/23 12:06:07;;;;;;;9.38;4.35;;;;;;;;;;5084811;27;20051;-72
2023/04/23 12:08:41;;;;;;;11.82;4.43;;;;;;;;;;5085806;27;20051;-72
2023/04/23 12:11:07;;;;;;;;;;;;;;;;;;5088313;27;20050;-73
2023/04/23 12:13:33;;;;;;;7.45;3.60;;;;;;;;;;5085054;27;19951;-72
2023/04/23 12:16:00;;;;;;;10.65;4.40;;;;;;;;;;5087217;27;20052;-73
2023/04/23 12:18:30;;;;;;;9.95;3.88;;;;;;;;;;5086385;27;20460;-73
2023/04/23 12:21:04;;;;;;;8.00;3.53;;;;;;;;;;5084028;27;20047;-72
2023/04/23 12:23:32;;;;;;;7.97;3.15;;;;;;;;;;5087425;27;20036;-73
2023/04/23 12:25:58;;;;;;;10.38;3.10;;;;;;;;;;5087472;27;20079;-73
2023/04/23 12:28:24;;;;;;;7.15;3.58;;;;;;;;;;5088051;27;20050;-72
2023/04/23 12:30:50;;;;;;;7.18;2.50;;;;;;;;;;5087361;27;20043;-73
2023/04/23 12:33:17;;;;;;;5.68;2.92;;;;;;;;;;5061918;27;20695;-72
2023/04/23 12:35:50;;;;;;;8.60;2.60;;;;;;;;;;5090358;27;20047;-72
2023/04/23 12:38:29;;;;;;;6.50;2.53;;;;;;;;;;5084354;27;20047;-73
2023/04/23 12:40:57;;;;;;;5.45;2.30;;;;;;;;;;5083854;27;20078;-73
2023/04/23 12:43:24;;;;;;;8.68;2.92;;;;;;;;;;5085495;27;20035;-73
2023/04/23 12:45:50;;;;;;;6.13;2.40;;;;;;;;;;5085172;27;20039;-73
2023/04/23 12:48:17;;;;;;;5.10;2.67;;;;;;;;;;5085719;27;20051;-73
2023/04/23 12:50:45;;;;;;;6.18;2.00;;;;;;;;;;5086527;27;20047;-73
2023/04/23 12:53:11;;;;;;;6.75;2.33;;;;;;;;;;5080286;27;20040;-73
2023/04/23 12:55:38;;;;;;;6.57;2.67;;;;;;;;;;5087319;27;20138;-72
2023/04/23 12:58:04;;;;;;;3.63;1.90;;;;;;;;;;5085173;27;20047;-72
2023/04/23 13:00:32;;;;;;;5.65;2.58;;;;;;;;;;5088051;27;20104;-72
2023/04/23 13:02:58;;;;;;;9.95;3.40;;;;;;;;;;5076246;27;21923;-72
2023/04/23 13:05:26;;;;;;;5.95;2.50;;;;;;;;;;5086508;27;20043;-72
2023/04/23 13:07:52;;;;;;;5.78;1.90;;;;;;;;;;5086224;27;22150;-72
2023/04/23 13:10:18;;;;;;;6.40;2.13;;;;;;;;;;5086290;27;20083;-72
2023/04/23 13:12:44;;;;;;;4.85;1.67;;;;;;;;;;5081711;27;20120;-72
2023/04/23 13:15:14;;;;;;;5.72;1.70;;;;;;;;;;5068946;27;20052;-72
2023/04/23 13:17:40;;;;;;;4.82;1.70;;;;;;;;;;5088653;27;20039;-71
2023/04/23 13:20:07;;;;;;;7.35;1.73;;;;;;;;;;5087083;27;20189;-72
2023/04/23 13:22:33;;;;;;;4.15;1.58;;;;;;;;;;5089901;27;20144;-72
2023/04/23 13:25:00;;;;;;;11.30;2.05;;;;;;;;;;5084569;27;20058;-73
2023/04/23 13:27:27;;;;;;;7.72;1.90;;;;;;;;;;5087964;27;20040;-72
2023/04/23 13:29:53;;;;;;;4.82;2.10;;;;;;;;;;5087938;27;20039;-72
2023/04/23 13:32:19;;;;;;;8.88;1.95;;;;;;;;;;5088096;27;20051;-72
2023/04/23 13:34:45;;;;;;;8.25;1.90;;;;;;;;;;5088253;27;20554;-72
2023/04/23 13:37:11;;;;;;;3.97;1.50;;;;;;;;;;5088902;28;20054;-72
2023/04/23 13:39:38;;;;;;;5.07;1.73;;;;;;;;;;5083268;27;20961;-72
2023/04/23 13:42:04;;;;;;;6.38;1.90;;;;;;;;;;5084819;27;20143;-72
2023/04/23 13:44:30;;;;;;;4.65;1.95;;;;;;;;;;5084809;28;20047;-72
2023/04/23 13:46:58;;;;;;;5.72;1.67;;;;;;;;;;5080390;28;20069;-71
2023/04/23 13:49:24;;;;;;;7.95;2.00;;;;;;;;;;5083176;27;20131;-70
2023/04/23 13:51:57;;;;;;;4.30;1.85;;;;;;;;;;5060294;28;20043;-71
2023/04/23 13:54:26;;;;;;;4.32;1.70;;;;;;;;;;5075319;27;22101;-72
2023/04/23 13:56:53;;;;;;;6.85;2.15;;;;;;;;;;5081518;27;20067;-72
2023/04/23 13:59:19;;;;;;;5.32;1.75;;;;;;;;;;5080533;27;20028;-77
2023/04/23 14:01:48;;;;;;;4.15;1.70;;;;;;;;;;5078631;27;20048;-73
2023/04/23 14:04:14;;;;;;;6.57;1.70;;;;;;;;;;5082197;28;20754;-72
2023/04/23 14:06:41;;;;;;;7.65;2.00;;;;;;;;;;5062262;28;20051;-73
2023/04/23 14:09:08;;;;;;;3.78;1.90;;;;;;;;;;5082514;28;20091;-73
2023/04/23 14:11:34;;;;;;;5.45;1.67;;;;;;;;;;5059092;27;20609;-72
2023/04/23 14:14:00;;;;;;;7.03;1.90;;;;;;;;;;5082386;27;20039;-73
2023/04/23 14:16:32;;;;;;;6.85;1.88;;;;;;;;;;5058167;28;20055;-73